createdAt,value
2023-01-19T00:00:56.352Z,100195.28
2023-01-19T00:03:23.489Z,100201.34
2023-01-19T00:05:51.296Z,100200.47
2023-01-19T00:08:18.725Z,100198.72
2023-01-19T00:10:50.953Z,100192.59
2023-01-19T00:13:18.133Z,100187.34
2023-01-19T00:15:45.904Z,100185.59
2023-01-19T00:18:13.000Z,100182.06
2023-01-19T00:20:41.016Z,100180.31
2023-01-19T00:23:08.732Z,100200.44
2023-01-19T00:25:42.357Z,100200.44
2023-01-19T00:28:15.035Z,100215.28
2023-01-19T00:30:42.972Z,100205.75
2023-01-19T00:33:14.440Z,100196.28
2023-01-19T00:35:44.820Z,100193.69
2023-01-19T00:38:12.892Z,100212.84
2023-01-19T00:40:39.968Z,100203.31
2023-01-19T00:43:07.059Z,100194.66
2023-01-19T00:45:34.694Z,100206.88
2023-01-19T00:48:02.060Z,100198.09
2023-01-19T00:50:31.318Z,100198.16
2023-01-19T00:53:03.487Z,100187.69
2023-01-19T00:55:33.460Z,100191.22
2023-01-19T00:58:00.616Z,100204.28
2023-01-19T01:00:27.835Z,100192.94
2023-01-19T01:02:55.823Z,100188.53
2023-01-19T01:05:23.113Z,100191.16
2023-01-19T01:07:50.649Z,100188.47
2023-01-19T01:10:37.587Z,100186.69
2023-01-19T01:13:20.766Z,100179.69
2023-01-19T01:15:54.466Z,100170.03
2023-01-19T01:18:22.736Z,100180.50
2023-01-19T01:20:50.088Z,100187.53
2023-01-19T01:23:22.870Z,100184.91
2023-01-19T01:25:50.111Z,100185.81
2023-01-19T01:28:17.218Z,100186.69
2023-01-19T01:30:44.381Z,100190.22
2023-01-19T01:33:11.853Z,100185.84
2023-01-19T01:35:40.519Z,100192.00
2023-01-19T01:38:07.594Z,100193.72
2023-01-19T01:40:34.661Z,100192.91
2023-01-19T01:43:02.820Z,100192.03
2023-01-19T01:45:39.406Z,100195.50
2023-01-19T01:48:15.327Z,100203.38
2023-01-19T01:51:19.408Z,100200.75
2023-01-19T01:53:49.975Z,100200.69
2023-01-19T01:56:24.156Z,100199.81
2023-01-19T01:58:51.348Z,100192.81
2023-01-19T02:01:44.608Z,100197.16
2023-01-19T02:04:11.840Z,100191.03
2023-01-19T02:06:57.916Z,100201.47
2023-01-19T02:09:46.647Z,100210.19
2023-01-19T02:12:32.670Z,100203.19
2023-01-19T02:14:59.801Z,100210.97
2023-01-19T02:17:26.897Z,100205.72
2023-01-19T02:19:54.317Z,100210.84
2023-01-19T02:22:35.930Z,100202.97
2023-01-19T02:25:05.766Z,100206.44
2023-01-19T02:27:33.906Z,100203.75
2023-01-19T02:30:03.608Z,100205.47
2023-01-19T02:32:30.924Z,100216.84
2023-01-19T02:34:58.396Z,100210.69
2023-01-19T02:37:29.828Z,100218.47
2023-01-19T02:40:00.475Z,100222.88
2023-01-19T02:42:44.418Z,100227.22
2023-01-19T02:45:15.153Z,100242.94
2023-01-19T02:47:51.830Z,100232.38
2023-01-19T02:50:47.539Z,100234.13
2023-01-19T02:53:32.504Z,100246.38
2023-01-19T02:56:24.743Z,100238.47
2023-01-19T02:59:27.277Z,100243.72
2023-01-19T03:02:29.737Z,100252.47
2023-01-19T03:05:21.753Z,100255.94
2023-01-19T03:08:17.586Z,100259.44
2023-01-19T03:10:55.070Z,100272.53
2023-01-19T03:13:50.079Z,100274.34
2023-01-19T03:16:43.121Z,100274.28
2023-01-19T03:19:19.077Z,100255.00
2023-01-19T03:21:52.664Z,100270.75
2023-01-19T03:24:23.217Z,100259.44
2023-01-19T03:27:00.372Z,100267.31
2023-01-19T03:29:31.710Z,100264.72
2023-01-19T03:32:09.016Z,100256.75
2023-01-19T03:34:39.318Z,100270.75
2023-01-19T03:37:08.220Z,100276.84
2023-01-19T03:39:35.365Z,100283.88
2023-01-19T03:42:08.647Z,100276.88
2023-01-19T03:44:38.626Z,100283.84
2023-01-19T03:47:08.756Z,100277.75
2023-01-19T03:49:37.902Z,100287.34
2023-01-19T03:52:05.881Z,100295.25
2023-01-19T03:54:33.021Z,100295.28
2023-01-19T03:57:00.135Z,100295.28
2023-01-19T03:59:27.262Z,100293.59
2023-01-19T04:01:54.581Z,100308.47
2023-01-19T04:04:21.789Z,100308.47
2023-01-19T04:06:48.943Z,100317.22
2023-01-19T04:09:17.521Z,100308.50
2023-01-19T04:11:45.694Z,100310.38
2023-01-19T04:14:12.753Z,100312.09
2023-01-19T04:16:39.903Z,100309.47
2023-01-19T04:19:07.046Z,100303.44
2023-01-19T04:21:35.163Z,100301.69
2023-01-19T04:24:02.275Z,100306.06
2023-01-19T04:26:29.659Z,100302.63
2023-01-19T04:28:56.716Z,100305.28
2023-01-19T04:31:23.838Z,100308.84
2023-01-19T04:33:50.896Z,100298.41
2023-01-19T04:36:17.978Z,100311.47
2023-01-19T04:38:46.599Z,100315.00
2023-01-19T04:41:13.675Z,100319.41
2023-01-19T04:43:40.844Z,100316.81
2023-01-19T04:46:08.025Z,100326.47
2023-01-19T04:48:35.266Z,100326.41
2023-01-19T04:51:02.339Z,100324.75
2023-01-19T04:53:29.394Z,100336.13
2023-01-19T04:55:56.924Z,100335.22
2023-01-19T04:58:24.005Z,100331.75
2023-01-19T05:00:52.179Z,100339.59
2023-01-19T05:03:20.111Z,100349.28
2023-01-19T05:05:47.223Z,100349.28
2023-01-19T05:08:14.327Z,100352.78
2023-01-19T05:10:41.429Z,100357.16
2023-01-19T05:13:08.542Z,100363.28
2023-01-19T05:15:35.631Z,100365.03
2023-01-19T05:18:02.786Z,100368.53
2023-01-19T05:20:29.889Z,100378.13
2023-01-19T05:22:57.098Z,100374.63
2023-01-19T05:25:24.278Z,100365.88
2023-01-19T05:27:51.309Z,100362.38
2023-01-19T05:30:19.595Z,100365.84
2023-01-19T05:32:47.220Z,100371.97
2023-01-19T05:35:16.705Z,100364.09
2023-01-19T05:37:45.527Z,100371.97
2023-01-19T05:40:13.137Z,100378.09
2023-01-19T05:42:40.257Z,100376.34
2023-01-19T05:45:08.174Z,100386.81
2023-01-19T05:47:35.307Z,100407.81
2023-01-19T05:50:02.443Z,100405.19
2023-01-19T05:52:29.474Z,100389.38
2023-01-19T05:54:56.580Z,100390.25
2023-01-19T05:57:24.306Z,100396.34
2023-01-19T05:59:51.542Z,100397.19
2023-01-19T06:02:18.673Z,100404.16
2023-01-19T06:04:45.773Z,100407.66
2023-01-19T06:07:12.829Z,100405.03
2023-01-19T06:09:39.875Z,100408.53
2023-01-19T06:12:07.164Z,100405.09
2023-01-19T06:14:34.320Z,100415.59
2023-01-19T06:17:01.372Z,100411.22
2023-01-19T06:19:28.501Z,100423.47
2023-01-19T06:21:55.892Z,100437.47
2023-01-19T06:24:24.023Z,100438.34
2023-01-19T06:26:51.389Z,100448.84
2023-01-19T06:30:38.541Z,100446.19
2023-01-19T06:33:05.825Z,100456.69
2023-01-19T06:35:32.880Z,100469.81
2023-01-19T06:38:00.111Z,100476.75
2023-01-19T06:40:27.232Z,100480.25
2023-01-19T06:42:54.225Z,100486.38
2023-01-19T06:45:21.293Z,100474.13
2023-01-19T06:47:48.524Z,100480.25
2023-01-19T06:50:16.110Z,100484.56
2023-01-19T06:52:43.252Z,100484.56
2023-01-19T06:55:12.088Z,100482.81
2023-01-19T06:57:40.217Z,100489.81
2023-01-19T07:00:09.084Z,100495.94
2023-01-19T07:02:36.664Z,100489.81
2023-01-19T07:05:06.655Z,100490.75
2023-01-19T07:07:33.963Z,100498.56
2023-01-19T07:10:01.142Z,100503.00
2023-01-19T07:12:28.274Z,100506.50
2023-01-19T07:14:55.613Z,100510.88
2023-01-19T07:17:22.766Z,100517.88
2023-01-19T07:19:49.778Z,100517.06
2023-01-19T07:22:17.033Z,100523.19
2023-01-19T07:24:44.246Z,100526.72
2023-01-19T07:27:14.721Z,100528.47
2023-01-19T07:29:42.322Z,100541.63
2023-01-19T07:32:09.425Z,100542.50
2023-01-19T07:34:36.978Z,100544.25
2023-01-19T07:37:04.373Z,100542.56
2023-01-19T07:39:31.944Z,100540.81
2023-01-19T07:41:59.098Z,100566.16
2023-01-19T07:44:26.132Z,100555.66
2023-01-19T07:46:53.280Z,100555.66
2023-01-19T07:49:20.653Z,100561.75
2023-01-19T07:51:47.820Z,100567.00
2023-01-19T07:54:15.005Z,100578.34
2023-01-19T07:56:42.039Z,100578.34
2023-01-19T07:59:11.064Z,100580.97
2023-01-19T08:01:38.962Z,100580.97
2023-01-19T08:04:06.199Z,100591.47
2023-01-19T08:06:35.968Z,100594.13
2023-01-19T08:09:05.634Z,100595.84
2023-01-19T08:11:33.381Z,100603.75
2023-01-19T08:14:00.876Z,100610.72
2023-01-19T08:16:27.990Z,100615.13
2023-01-19T08:18:55.341Z,100618.59
2023-01-19T08:21:22.425Z,100619.50
2023-01-19T08:23:57.722Z,100623.88
2023-01-19T08:26:31.815Z,100630.00
2023-01-19T08:29:02.962Z,100629.13
2023-01-19T08:31:30.449Z,100634.38
2023-01-19T08:33:58.155Z,100635.25
2023-01-19T08:36:25.443Z,100638.72
2023-01-19T08:38:52.535Z,100638.72
2023-01-19T08:41:19.809Z,100643.09
2023-01-19T08:43:47.102Z,100636.97
2023-01-19T08:46:18.501Z,100641.34
2023-01-19T08:48:45.627Z,100656.22
2023-01-19T08:51:13.092Z,100657.94
2023-01-19T08:53:41.314Z,100651.81
2023-01-19T08:56:13.632Z,100656.16
2023-01-19T08:58:42.883Z,100653.53
2023-01-19T09:01:14.559Z,100665.78
2023-01-19T09:03:41.755Z,100661.38
2023-01-19T09:06:10.872Z,100657.88
2023-01-19T09:08:38.450Z,100665.72
2023-01-19T09:11:11.092Z,100673.59
2023-01-19T09:13:38.551Z,100669.22
2023-01-19T09:16:11.382Z,100667.41
2023-01-19T09:18:39.413Z,100671.78
2023-01-19T09:21:06.522Z,100674.38
2023-01-19T09:23:33.606Z,100669.13
2023-01-19T09:26:07.045Z,100674.34
2023-01-19T09:28:34.756Z,100674.34
2023-01-19T09:31:07.049Z,100673.47
2023-01-19T09:33:34.995Z,100680.41
2023-01-19T09:36:02.335Z,100683.03
2023-01-19T09:38:32.602Z,100683.88
2023-01-19T09:41:00.879Z,100693.38
2023-01-19T09:43:33.848Z,100685.34
2023-01-19T09:46:39.947Z,100689.66
2023-01-19T09:49:23.289Z,100691.06
2023-01-19T09:51:51.741Z,100681.66
2023-01-19T09:54:23.465Z,100688.00
2023-01-19T09:56:52.848Z,100683.41
2023-01-19T09:59:25.181Z,100689.13
2023-01-19T10:02:01.240Z,100692.28
2023-01-19T10:04:45.180Z,100684.19
2023-01-19T10:07:33.448Z,100682.63
2023-01-19T10:10:25.720Z,100692.47
2023-01-19T10:13:19.982Z,100697.09
2023-01-19T10:16:26.220Z,100694.56
2023-01-19T10:18:59.657Z,100695.28
2023-01-19T10:21:31.554Z,100694.53
2023-01-19T10:24:21.536Z,100697.06
2023-01-19T10:26:55.202Z,100706.09
2023-01-19T10:29:37.969Z,100710.22
2023-01-19T10:32:19.702Z,100707.50
2023-01-19T10:34:49.056Z,100703.75
2023-01-19T10:37:40.623Z,100705.84
2023-01-19T10:40:10.725Z,100699.25
2023-01-19T10:42:41.557Z,100704.56
2023-01-19T10:45:25.974Z,100700.13
2023-01-19T10:47:57.388Z,100709.50
2023-01-19T10:50:31.745Z,100700.63
2023-01-19T10:53:03.688Z,100705.50
2023-01-19T10:55:39.915Z,100704.88
2023-01-19T10:58:30.854Z,100697.47
2023-01-19T11:01:19.208Z,100703.00
2023-01-19T11:03:46.895Z,100697.25
2023-01-19T11:06:15.245Z,100701.13
2023-01-19T11:08:45.204Z,100699.63
2023-01-19T11:11:13.040Z,100707.06
2023-01-19T11:13:42.170Z,100705.72
2023-01-19T11:16:22.660Z,100710.97
2023-01-19T11:18:53.450Z,100708.31
2023-01-19T11:21:26.066Z,100708.41
2023-01-19T11:24:05.233Z,100714.72
2023-01-19T11:26:49.114Z,100710.38
2023-01-19T11:29:21.630Z,100708.09
2023-01-19T11:31:49.788Z,100715.59
2023-01-19T11:34:34.635Z,100716.06
2023-01-19T11:37:10.625Z,100727.50
2023-01-19T11:39:53.761Z,100725.44
2023-01-19T11:42:21.932Z,100725.47
2023-01-19T11:45:13.583Z,100723.94
2023-01-19T11:47:52.586Z,100727.97
2023-01-19T11:50:39.185Z,100724.56
2023-01-19T11:53:25.223Z,100724.97
2023-01-19T11:56:17.622Z,100725.38
2023-01-19T11:58:48.849Z,100725.41
2023-01-19T12:01:27.568Z,100726.53
2023-01-19T12:04:14.353Z,100728.53
2023-01-19T12:06:47.524Z,100732.75
2023-01-19T12:09:31.218Z,100726.56
2023-01-19T12:12:07.840Z,100726.78
2023-01-19T12:14:59.871Z,100736.59
2023-01-19T12:17:35.504Z,100740.22
2023-01-19T12:20:22.902Z,100737.00
2023-01-19T12:22:59.898Z,100736.31
2023-01-19T12:25:43.372Z,100743.41
2023-01-19T12:28:15.526Z,100739.94
2023-01-19T12:30:48.487Z,100739.13
2023-01-19T12:33:23.612Z,100739.19
2023-01-19T12:36:00.988Z,100734.19
2023-01-19T12:38:45.645Z,100737.69
2023-01-19T12:41:25.668Z,100742.00
2023-01-19T12:44:10.873Z,100743.75
2023-01-19T12:46:54.419Z,100748.97
2023-01-19T12:49:28.345Z,100747.13
2023-01-19T12:52:22.771Z,100745.34
2023-01-19T12:55:18.028Z,100748.00
2023-01-19T12:58:34.474Z,100748.00
2023-01-19T13:01:18.708Z,100745.19
2023-01-19T13:04:01.356Z,100745.81
2023-01-19T13:06:47.178Z,100744.97
2023-01-19T13:09:37.365Z,100744.94
2023-01-19T13:12:22.921Z,100747.53
2023-01-19T13:14:50.787Z,100748.41
2023-01-19T13:17:34.367Z,100751.88
2023-01-19T13:20:23.205Z,100750.88
2023-01-19T13:23:22.806Z,100754.28
2023-01-19T13:25:54.924Z,100749.00
2023-01-19T13:28:32.302Z,100758.72
2023-01-19T13:31:02.653Z,100759.63
2023-01-19T13:33:41.068Z,100756.97
2023-01-19T13:36:26.163Z,100755.34
2023-01-19T13:38:53.957Z,100762.44
2023-01-19T13:41:25.182Z,100763.31
2023-01-19T13:44:28.504Z,100764.28
2023-01-19T13:46:59.251Z,100762.56
2023-01-19T13:49:45.126Z,100766.16
2023-01-19T13:52:15.154Z,100772.38
2023-01-19T13:54:59.801Z,100771.59
2023-01-19T13:57:45.238Z,100775.09
2023-01-19T14:00:12.660Z,100780.38
2023-01-19T14:02:52.198Z,100780.41
2023-01-19T14:05:35.180Z,100779.63
2023-01-19T14:08:05.295Z,100784.22
2023-01-19T14:10:34.449Z,100793.91
2023-01-19T14:13:16.259Z,100798.28
2023-01-19T14:15:44.768Z,100796.56
2023-01-19T14:18:24.447Z,100791.44
2023-01-19T14:21:11.725Z,100800.34
2023-01-19T14:23:47.675Z,100802.91
2023-01-19T14:26:51.267Z,100807.44
2023-01-19T14:29:33.149Z,100805.72
2023-01-19T14:32:19.847Z,100809.22
2023-01-19T14:35:12.947Z,100817.13
2023-01-19T14:37:48.111Z,100814.28
2023-01-19T14:40:20.783Z,100812.31
2023-01-19T14:43:02.948Z,100816.50
2023-01-19T14:45:42.803Z,100804.91
2023-01-19T14:48:18.727Z,100805.56
2023-01-19T14:51:02.032Z,100808.06
2023-01-19T14:53:36.646Z,100814.47
2023-01-19T14:56:07.735Z,100814.66
2023-01-19T14:58:36.049Z,100816.53
2023-01-19T15:01:04.529Z,100804.34
2023-01-19T15:03:44.103Z,100810.56
2023-01-19T15:06:20.611Z,100815.09
2023-01-19T15:08:50.001Z,100817.84
2023-01-19T15:11:27.391Z,100815.28
2023-01-19T15:13:55.440Z,100812.72
2023-01-19T15:16:24.592Z,100817.22
2023-01-19T15:18:51.825Z,100825.19
2023-01-19T15:21:23.156Z,100823.47
2023-01-19T15:23:50.635Z,100829.66
2023-01-19T15:26:21.726Z,100829.69
2023-01-19T15:28:49.356Z,100835.03
2023-01-19T15:31:22.630Z,100841.19
2023-01-19T15:33:50.284Z,100854.38
2023-01-19T15:36:20.798Z,100848.25
2023-01-19T15:38:50.778Z,100850.88
2023-01-19T15:41:28.537Z,100856.19
2023-01-19T15:43:55.857Z,100853.59
2023-01-19T15:46:25.669Z,100857.13
2023-01-19T15:48:54.101Z,100853.63
2023-01-19T15:51:25.403Z,100858.94
2023-01-19T15:53:53.972Z,100860.69
2023-01-19T15:56:24.662Z,100859.81
2023-01-19T15:58:53.475Z,100863.38
2023-01-19T16:01:23.621Z,100863.34
2023-01-19T16:03:51.352Z,100866.91
2023-01-19T16:06:18.522Z,100867.78
2023-01-19T16:08:45.871Z,100872.13
2023-01-19T16:11:15.250Z,100867.78
2023-01-19T16:13:48.968Z,100875.66
2023-01-19T16:16:22.621Z,100873.03
2023-01-19T16:18:50.460Z,100880.91
2023-01-19T16:21:17.783Z,100873.06
2023-01-19T16:23:44.909Z,100887.03
2023-01-19T16:26:32.473Z,100891.41
2023-01-19T16:29:02.677Z,100898.38
2023-01-19T16:31:30.139Z,100895.75
2023-01-19T16:33:57.347Z,100903.59
2023-01-19T16:36:30.523Z,100904.47
2023-01-19T16:39:10.201Z,100901.81
2023-01-19T16:41:37.747Z,100906.19
2023-01-19T16:44:06.016Z,100910.53
2023-01-19T16:46:36.670Z,100919.22
2023-01-19T16:49:13.394Z,100925.34
2023-01-19T16:51:40.614Z,100920.94
2023-01-19T16:54:09.429Z,100927.06
2023-01-19T16:56:36.495Z,100917.41
2023-01-19T16:59:03.540Z,100920.00
2023-01-19T17:01:30.939Z,100927.84
2023-01-19T17:03:58.124Z,100931.31
2023-01-19T17:06:26.519Z,100934.78
2023-01-19T17:08:53.653Z,100939.13
2023-01-19T17:11:30.751Z,100941.72
2023-01-19T17:14:04.123Z,100941.69
2023-01-19T17:16:33.745Z,100941.66
2023-01-19T17:19:03.552Z,100945.16
2023-01-19T17:21:30.804Z,100945.97
2023-01-19T17:23:59.139Z,100951.22
2023-01-19T17:26:30.702Z,100958.16
2023-01-19T17:29:03.486Z,100958.09
2023-01-19T17:31:32.042Z,100963.34
2023-01-19T17:34:00.661Z,100961.56
2023-01-19T17:36:30.135Z,100963.25
2023-01-19T17:39:00.359Z,100965.88
2023-01-19T17:41:30.769Z,100969.38
2023-01-19T17:44:01.221Z,100965.84
2023-01-19T17:46:29.966Z,100967.56
2023-01-19T17:49:03.218Z,100963.19
2023-01-19T17:51:31.823Z,100964.03
2023-01-19T17:53:59.811Z,100963.16
2023-01-19T17:56:32.922Z,100965.75
2023-01-19T17:59:00.130Z,100973.56
2023-01-19T18:01:30.837Z,100969.19
2023-01-19T18:03:59.044Z,100975.25
2023-01-19T18:06:26.492Z,100976.97
2023-01-19T18:08:54.083Z,100976.06
2023-01-19T18:11:21.901Z,100984.81
2023-01-19T18:13:51.738Z,100981.25
2023-01-19T18:16:24.824Z,100984.75
2023-01-19T18:18:53.743Z,100977.78
2023-01-19T18:21:22.796Z,100980.34
2023-01-19T18:23:51.241Z,100990.88
2023-01-19T18:26:21.239Z,100982.19
2023-01-19T18:28:49.836Z,100986.47
2023-01-19T18:31:19.275Z,100996.09
2023-01-19T18:33:48.434Z,101003.94
2023-01-19T18:36:16.713Z,101000.47
2023-01-19T18:38:44.522Z,101004.06
2023-01-19T18:41:14.043Z,100998.78
2023-01-19T18:43:41.882Z,100998.81
2023-01-19T18:46:09.720Z,101000.59
2023-01-19T18:48:38.417Z,101005.00
2023-01-19T18:51:11.328Z,100996.25
2023-01-19T18:53:38.698Z,101003.25
2023-01-19T18:56:06.636Z,101000.66
2023-01-19T18:58:36.252Z,100999.75
2023-01-19T19:01:03.810Z,101001.47
2023-01-19T19:03:31.532Z,100995.41
2023-01-19T19:06:03.510Z,101008.44
2023-01-19T19:08:30.796Z,101011.09
2023-01-19T19:10:57.877Z,101012.91
2023-01-19T19:13:25.325Z,101007.69
2023-01-19T19:15:52.608Z,101011.16
2023-01-19T19:18:20.108Z,101026.91
2023-01-19T19:20:47.206Z,101033.03
2023-01-19T19:23:14.850Z,101033.09
2023-01-19T19:25:41.912Z,101037.47
2023-01-19T19:28:08.972Z,101042.72
2023-01-19T19:30:37.856Z,101047.13
2023-01-19T19:33:05.241Z,101043.66
2023-01-19T19:35:32.325Z,101057.66
2023-01-19T19:37:59.499Z,101058.56
2023-01-19T19:40:28.022Z,101064.69
2023-01-19T19:42:58.334Z,101068.19
2023-01-19T19:45:26.021Z,101068.22
2023-01-19T19:47:53.135Z,101069.09
2023-01-19T19:50:20.303Z,101073.53
2023-01-19T19:52:47.455Z,101079.63
2023-01-19T19:55:14.576Z,101078.78
2023-01-19T19:57:41.740Z,101080.53
2023-01-19T20:00:09.722Z,101092.81
2023-01-19T20:02:37.005Z,101085.84
2023-01-19T20:05:05.212Z,101089.31
2023-01-19T20:07:32.720Z,101083.22
2023-01-19T20:09:59.855Z,101081.53
2023-01-19T20:12:27.453Z,101082.41
2023-01-19T20:14:54.526Z,101085.91
2023-01-19T20:17:23.125Z,101094.66
2023-01-19T20:19:50.284Z,101092.88
2023-01-19T20:22:17.420Z,101099.00
2023-01-19T20:24:44.682Z,101100.75
2023-01-19T20:27:11.801Z,101106.00
2023-01-19T20:29:39.047Z,101112.13
2023-01-19T20:32:06.307Z,101113.88
2023-01-19T20:34:34.110Z,101113.84
2023-01-19T20:37:02.381Z,101116.47
2023-01-19T20:39:33.122Z,101130.44
2023-01-19T20:42:00.820Z,101128.69
2023-01-19T20:44:28.150Z,101126.06
2023-01-19T20:46:56.356Z,101138.31
2023-01-19T20:49:23.645Z,101138.31
2023-01-19T20:51:51.880Z,101134.81
2023-01-19T20:54:22.667Z,101143.53
2023-01-19T20:56:50.067Z,101149.69
2023-01-19T20:59:17.768Z,101152.28
2023-01-19T21:01:48.264Z,101152.28
2023-01-19T21:04:17.191Z,101145.31
2023-01-19T21:06:44.395Z,101144.44
2023-01-19T21:09:11.597Z,101139.19
2023-01-19T21:11:39.618Z,101147.06
2023-01-19T21:14:07.474Z,101139.19
2023-01-19T21:16:37.304Z,101143.53
2023-01-19T21:19:05.799Z,101140.94
2023-01-19T21:21:32.876Z,101136.56
2023-01-19T21:24:02.519Z,101135.69
2023-01-19T21:26:30.597Z,101147.91
2023-01-19T21:29:02.571Z,101158.41
2023-01-19T21:31:30.797Z,101156.66
2023-01-19T21:33:58.495Z,101158.38
2023-01-19T21:36:25.998Z,101159.19
2023-01-19T21:38:55.591Z,101160.06
2023-01-19T21:41:22.937Z,101168.78
2023-01-19T21:43:50.041Z,101160.84
2023-01-19T21:46:22.181Z,101169.56
2023-01-19T21:48:49.335Z,101166.91
2023-01-19T21:51:16.457Z,101166.84
2023-01-19T21:53:43.788Z,101166.81
2023-01-19T21:56:11.464Z,101168.56
2023-01-19T21:58:38.949Z,101171.16
2023-01-19T22:01:15.366Z,101173.78
2023-01-19T22:03:43.168Z,101184.22
2023-01-19T22:06:13.988Z,101183.31
2023-01-19T22:08:41.806Z,101186.75
2023-01-19T22:11:11.232Z,101183.25
2023-01-19T22:13:38.986Z,101195.44
2023-01-19T22:16:13.246Z,101202.38
2023-01-19T22:18:43.883Z,101204.09
2023-01-19T22:21:15.621Z,101210.25
2023-01-19T22:23:43.485Z,101216.31
2023-01-19T22:26:11.973Z,101224.25
2023-01-19T22:28:39.076Z,101225.16
2023-01-19T22:31:25.553Z,101222.50
2023-01-19T22:33:53.467Z,101228.63
2023-01-19T22:36:34.018Z,101229.53
2023-01-19T22:39:05.304Z,101233.91
2023-01-19T22:41:35.769Z,101229.53
2023-01-19T22:44:11.213Z,101231.34
2023-01-19T22:46:38.746Z,101232.22
2023-01-19T22:49:07.762Z,101229.53
2023-01-19T22:51:35.571Z,101221.72
2023-01-19T22:54:03.737Z,101226.09
2023-01-19T22:56:33.564Z,101225.22
2023-01-19T22:59:01.582Z,101226.94
2023-01-19T23:01:35.105Z,101233.91
2023-01-19T23:04:04.508Z,101234.78
2023-01-19T23:06:35.573Z,101231.22
2023-01-19T23:09:14.201Z,101235.53
2023-01-19T23:11:44.745Z,101228.59
2023-01-19T23:14:19.749Z,101233.00
2023-01-19T23:16:47.258Z,101226.00
2023-01-19T23:19:17.012Z,101233.78
2023-01-19T23:21:44.630Z,101232.09
2023-01-19T23:24:12.306Z,101225.91
2023-01-19T23:26:39.857Z,101233.78
2023-01-19T23:29:13.790Z,101232.78
2023-01-19T23:31:46.235Z,101226.78
2023-01-19T23:34:14.669Z,101229.38
2023-01-19T23:36:42.934Z,101225.84
2023-01-19T23:39:20.624Z,101224.97
2023-01-19T23:41:48.588Z,101235.47
2023-01-19T23:44:17.170Z,101231.91
2023-01-19T23:46:44.510Z,101238.00
2023-01-19T23:49:13.006Z,101244.97
2023-01-19T23:51:41.026Z,101246.63
2023-01-19T23:54:08.229Z,101236.16
2023-01-19T23:56:38.300Z,101241.31
2023-01-19T23:59:11.441Z,101242.22
